Time;durP1;ratioP1;P1;durP2;ratioP2;P2;SDS_P1;SDS_P2;PMS_P1;PMS_P2;Temp;Humidity;BMP_temperature;BMP_pressure;BME280_temperature;BME280_humidity;BME280_pressure;Samples;Min_cycle;Max_cycle;Signal;HPM_P1;HPM_P2
2023/02/19 00:00:04;;;;;;;21.23;12.52;;;;;;;3.72;100.00;93201.63;6197405;23;20027;-78
2023/02/19 00:02:38;;;;;;;21.73;13.23;;;;;;;3.72;100.00;93196.44;6222462;23;20063;-78
2023/02/19 00:05:04;;;;;;;20.45;14.35;;;;;;;3.71;100.00;93192.25;6223217;23;20012;-78
2023/02/19 00:07:30;;;;;;;21.83;14.43;;;;;;;3.70;100.00;93194.06;6223277;23;20011;-78
2023/02/19 00:09:55;;;;;;;23.20;14.60;;;;;;;3.70;100.00;93190.69;6223809;23;20013;-78
2023/02/19 00:12:21;;;;;;;23.02;15.27;;;;;;;3.69;100.00;93191.69;6222446;23;20020;-78
2023/02/19 00:14:46;;;;;;;22.33;15.07;;;;;;;3.65;100.00;93190.59;6224019;23;20012;-78
2023/02/19 00:17:12;;;;;;;20.98;14.23;;;;;;;3.64;100.00;93194.19;6221734;23;20012;-78
2023/02/19 00:19:37;;;;;;;22.33;14.98;;;;;;;3.60;100.00;93182.69;6223111;23;20020;-78
2023/02/19 00:22:03;;;;;;;21.30;14.25;;;;;;;3.61;100.00;93184.28;6222349;23;20001;-78
2023/02/19 00:24:28;;;;;;;22.13;14.35;;;;;;;3.62;100.00;93191.03;6223860;23;20016;-78
2023/02/19 00:26:54;;;;;;;20.80;13.68;;;;;;;3.60;100.00;93183.47;6222747;23;20012;-78
2023/02/19 00:29:20;;;;;;;18.23;13.02;;;;;;;3.61;100.00;93179.88;6195716;23;20025;-77
2023/02/19 00:31:46;;;;;;;21.17;12.95;;;;;;;3.62;100.00;93178.84;6224845;23;20032;-78
2023/02/19 00:34:13;;;;;;;21.13;13.20;;;;;;;3.60;100.00;93180.88;6225254;23;20013;-78
2023/02/19 00:36:41;;;;;;;21.20;13.52;;;;;;;3.60;100.00;93183.47;6224469;23;20011;-78
2023/02/19 00:39:09;;;;;;;23.58;13.85;;;;;;;3.53;100.00;93175.84;6197073;23;20020;-78
2023/02/19 00:41:35;;;;;;;20.48;13.95;;;;;;;3.53;100.00;93175.84;6221592;23;20001;-78
2023/02/19 00:44:06;;;;;;;25.65;14.70;;;;;;;3.52;100.00;93176.84;6198426;23;20039;-78
2023/02/19 00:46:37;;;;;;;23.02;14.63;;;;;;;3.47;100.00;93174.16;6224655;23;20088;-78
2023/02/19 00:49:05;;;;;;;26.90;15.20;;;;;;;3.48;100.00;93174.94;6224417;23;20009;-78
2023/02/19 00:51:34;;;;;;;21.35;14.38;;;;;;;3.43;100.00;93170.44;6221633;23;20094;-78
2023/02/19 00:54:00;;;;;;;25.88;16.05;;;;;;;3.42;100.00;93178.41;6224147;23;20067;-78
2023/02/19 00:56:27;;;;;;;23.48;15.88;;;;;;;3.40;100.00;93176.06;6223458;23;20024;-78
2023/02/19 00:58:52;;;;;;;25.10;16.58;;;;;;;3.38;100.00;93166.94;6195940;23;20060;-78
2023/02/19 01:01:19;;;;;;;22.45;15.40;;;;;;;3.40;100.00;93173.47;6197956;23;20008;-77
2023/02/19 01:03:46;;;;;;;26.85;15.18;;;;;;;3.39;100.00;93171.09;6172262;23;20020;-78
2023/02/19 01:06:14;;;;;;;28.00;16.27;;;;;;;3.39;100.00;93168.53;6222866;23;20020;-78
2023/02/19 01:08:41;;;;;;;23.52;15.52;;;;;;;3.39;100.00;93164.13;6197305;23;20068;-78
2023/02/19 01:11:08;;;;;;;22.20;14.57;;;;;;;3.41;100.00;93162.09;6198456;23;20012;-77
2023/02/19 01:13:34;;;;;;;24.23;15.70;;;;;;;3.42;100.00;93162.88;6197473;23;20023;-78
2023/02/19 01:16:09;;;;;;;28.85;16.70;;;;;;;3.40;100.00;93160.53;6195816;23;20021;-78
2023/02/19 01:18:35;;;;;;;30.77;17.02;;;;;;;3.36;100.00;93156.81;6198150;23;20063;-78
2023/02/19 01:21:06;;;;;;;25.13;16.48;;;;;;;3.35;100.00;93155.22;6224561;23;20001;-78
2023/02/19 01:23:32;;;;;;;26.20;15.88;;;;;;;3.34;100.00;93158.84;6195754;23;20106;-78
2023/02/19 01:25:57;;;;;;;23.38;16.52;;;;;;;3.30;100.00;93157.72;6197621;23;20013;-78
2023/02/19 01:28:23;;;;;;;26.02;16.15;;;;;;;3.28;100.00;93154.56;6172892;23;20364;-78
2023/02/19 01:30:49;;;;;;;24.35;16.83;;;;;;;3.26;100.00;93157.34;6196868;23;20337;-78
2023/02/19 01:33:14;;;;;;;24.48;16.63;;;;;;;3.23;100.00;93157.03;6224128;23;20043;-78
2023/02/19 01:35:40;;;;;;;21.30;15.00;;;;;;;3.22;100.00;93155.44;6222967;23;20480;-78
2023/02/19 01:38:07;;;;;;;24.27;15.13;;;;;;;3.22;100.00;93158.03;6195924;23;20084;-77
2023/02/19 01:40:33;;;;;;;23.48;15.70;;;;;;;3.23;100.00;93157.03;6225929;23;20040;-78
2023/02/19 01:42:59;;;;;;;26.77;15.45;;;;;;;3.22;100.00;93153.66;6227266;23;20015;-78
2023/02/19 01:45:26;;;;;;;25.00;16.27;;;;;;;3.25;100.00;93155.00;6202488;23;20004;-78
2023/02/19 01:47:55;;;;;;;26.70;16.20;;;;;;;3.21;100.00;93148.72;6202644;23;20013;-77
2023/02/19 01:50:22;;;;;;;23.30;15.20;;;;;;;3.26;100.00;93156.56;6227791;23;20063;-78
2023/02/19 01:52:48;;;;;;;24.00;15.10;;;;;;;3.27;100.00;93153.78;6222690;23;20019;-78
2023/02/19 01:55:14;;;;;;;24.48;15.65;;;;;;;3.28;100.00;93151.97;6172468;23;20009;-78
2023/02/19 01:57:45;;;;;;;24.77;15.40;;;;;;;3.29;100.00;93144.00;6214431;23;20047;-78
2023/02/19 02:00:15;;;;;;;25.63;15.93;;;;;;;3.31;100.00;93141.16;6221432;23;20016;-77
2023/02/19 02:02:43;;;;;;;23.13;14.52;;;;;;;3.32;100.00;93140.16;6221744;23;20461;-78
2023/02/19 02:05:22;;;;;;;20.98;15.40;;;;;;;3.34;100.00;93136.34;6224441;23;20030;-78
2023/02/19 02:10:33;;;;;;;22.77;14.63;;;;;;;3.24;100.00;93124.97;6221121;23;20448;-77
2023/02/19 02:13:00;;;;;;;23.77;15.07;;;;;;;3.25;100.00;93124.75;6220452;23;20004;-78
2023/02/19 02:15:40;;;;;;;23.25;14.85;;;;;;;3.25;100.00;93118.78;6221750;23;20095;-78
2023/02/19 02:18:23;;;;;;;24.00;14.25;;;;;;;3.23;100.00;93116.41;6221943;23;20005;-78
2023/02/19 02:21:17;;;;;;;22.17;14.18;;;;;;;3.22;100.00;93114.84;6221171;23;20036;-78
2023/02/19 02:24:12;;;;;;;19.63;13.80;;;;;;;3.19;100.00;93098.97;6223263;23;20008;-78
2023/02/19 02:27:04;;;;;;;20.73;13.98;;;;;;;3.19;100.00;93096.41;6221067;23;20401;-78
2023/02/19 02:29:49;;;;;;;28.70;15.90;;;;;;;3.18;100.00;93102.59;6195901;23;20020;-78
2023/02/19 02:32:25;;;;;;;24.08;15.00;;;;;;;3.17;100.00;93106.97;6221644;23;20036;-78
2023/02/19 02:35:04;;;;;;;22.88;16.13;;;;;;;3.17;100.00;93106.19;6220433;23;20008;-78
2023/02/19 02:37:34;;;;;;;25.60;15.68;;;;;;;3.15;100.00;93097.84;6220545;23;20028;-78
2023/02/19 02:40:02;;;;;;;27.65;15.35;;;;;;;3.12;100.00;93099.09;6215893;23;20004;-77
2023/02/19 02:42:29;;;;;;;20.42;14.23;;;;;;;3.12;100.00;93102.47;6214476;23;20008;-77
2023/02/19 02:45:34;;;;;;;25.70;16.15;;;;;;;3.15;100.00;93087.50;6217695;23;20384;-78
2023/02/19 02:48:41;;;;;;;21.70;14.50;;;;;;;3.10;100.00;93081.19;6222053;23;20036;-78
2023/02/19 02:51:30;;;;;;;23.73;14.07;;;;;;;3.10;100.00;93081.19;6219698;23;20464;-78
2023/02/19 02:56:52;;;;;;;25.23;15.07;;;;;;;3.06;100.00;93077.50;6219310;23;20048;-77
2023/02/19 02:59:22;;;;;;;24.33;15.05;;;;;;;3.04;100.00;93084.72;6221493;23;20005;-77
2023/02/19 03:02:11;;;;;;;25.80;14.63;;;;;;;3.00;100.00;93067.28;6220520;23;20016;-77
2023/02/19 03:07:59;;;;;;;23.45;14.23;;;;;;;3.00;100.00;93070.66;6220202;23;20412;-77
2023/02/19 03:10:39;;;;;;;23.48;13.90;;;;;;;2.97;100.00;93071.06;6219065;23;20372;-77
2023/02/19 03:21:42;;;;;;;24.02;14.75;;;;;;;2.89;100.00;93074.00;6219262;23;20483;-78
2023/02/19 03:26:55;;;;;;;23.35;14.88;;;;;;;2.86;100.00;93059.72;6195914;23;20765;-78
2023/02/19 03:29:25;;;;;;;22.60;14.68;;;;;;;2.88;100.00;93057.72;6195585;23;20464;-78
2023/02/19 03:32:03;;;;;;;23.83;15.23;;;;;;;2.86;100.00;93059.72;6198014;23;20012;-78
2023/02/19 03:34:37;;;;;;;25.38;15.68;;;;;;;2.90;100.00;93067.81;6195696;23;20012;-78
2023/02/19 03:37:24;;;;;;;22.20;15.20;;;;;;;2.86;100.00;93064.91;6195908;23;20035;-78
2023/02/19 03:39:51;;;;;;;25.85;15.98;;;;;;;2.86;100.00;93070.09;6195746;23;20008;-78
2023/02/19 03:42:40;;;;;;;24.60;14.93;;;;;;;2.85;100.00;93063.31;6194946;23;20013;-78
2023/02/19 03:45:29;;;;;;;25.23;15.32;;;;;;;2.84;100.00;93066.94;6170629;23;20016;-78
2023/02/19 03:48:27;;;;;;;23.95;15.77;;;;;;;2.88;100.00;93069.84;6222265;23;20015;-78
2023/02/19 03:51:24;;;;;;;25.20;14.25;;;;;;;2.87;100.00;93066.47;6130846;23;20017;-77
2023/02/19 03:54:01;;;;;;;22.52;13.88;;;;;;;2.89;100.00;93068.84;6196030;23;20012;-78
2023/02/19 03:56:37;;;;;;;23.48;14.57;;;;;;;2.86;100.00;93059.72;6221413;23;20456;-78
2023/02/19 03:59:36;;;;;;;23.98;14.25;;;;;;;2.86;100.00;93058.94;6197459;23;20008;-78
2023/02/19 04:02:10;;;;;;;24.15;14.05;;;;;;;2.81;100.00;93053.66;6156647;23;20013;-77
2023/02/19 04:04:44;;;;;;;26.30;14.98;;;;;;;2.85;100.00;93071.06;6221433;23;20013;-78
2023/02/19 04:07:10;;;;;;;25.20;14.95;;;;;;;2.85;100.00;93059.94;6195761;23;20016;-78
2023/02/19 04:09:43;;;;;;;23.27;14.65;;;;;;;2.86;100.00;93053.75;6171042;23;20023;-77
2023/02/19 04:12:14;;;;;;;24.80;15.23;;;;;;;2.87;100.00;93061.28;6194901;23;20015;-77
2023/02/19 04:15:00;;;;;;;22.73;15.57;;;;;;;2.88;100.00;93059.50;6197134;23;20012;-78
2023/02/19 04:17:36;;;;;;;26.35;15.75;;;;;;;2.88;100.00;93062.06;6221939;23;20009;-78
2023/02/19 04:20:06;;;;;;;21.10;14.73;;;;;;;2.85;100.00;93059.94;6224846;23;20013;-77
2023/02/19 04:22:35;;;;;;;23.75;15.10;;;;;;;2.88;100.00;93067.25;6195252;23;20032;-78
2023/02/19 04:25:01;;;;;;;23.42;15.38;;;;;;;2.84;100.00;93061.75;6223593;23;20352;-78
2023/02/19 04:27:26;;;;;;;23.60;15.27;;;;;;;2.87;100.00;93065.69;6224490;23;20013;-78
2023/02/19 04:29:52;;;;;;;24.88;15.07;;;;;;;2.89;100.00;93069.63;6223381;23;20410;-78
2023/02/19 04:32:19;;;;;;;25.30;15.25;;;;;;;2.93;100.00;93075.16;6223785;23;20004;-78
2023/02/19 04:34:45;;;;;;;21.60;15.13;;;;;;;2.92;100.00;93074.34;6195789;23;20017;-78
2023/02/19 04:37:11;;;;;;;23.42;15.05;;;;;;;2.93;100.00;93067.38;6221457;23;20019;-77
2023/02/19 04:39:36;;;;;;;25.50;15.13;;;;;;;2.91;100.00;93053.88;6221569;23;20000;-78
2023/02/19 04:42:03;;;;;;;24.75;15.90;;;;;;;2.93;100.00;93064.81;6222154;23;20348;-78
2023/02/19 04:44:28;;;;;;;24.88;15.13;;;;;;;2.93;100.00;93054.47;6220484;23;20425;-78
2023/02/19 04:46:54;;;;;;;25.10;15.50;;;;;;;2.95;100.00;93055.03;6221021;23;20015;-77
2023/02/19 04:49:20;;;;;;;25.48;15.40;;;;;;;2.99;100.00;93053.53;6220416;23;20012;-78
2023/02/19 04:51:45;;;;;;;22.77;15.10;;;;;;;3.01;100.00;93061.06;6169540;23;20074;-78
2023/02/19 04:54:11;;;;;;;24.33;14.88;;;;;;;3.01;100.00;93063.66;6221252;23;20007;-77
2023/02/19 04:56:36;;;;;;;24.48;14.68;;;;;;;3.00;100.00;93055.13;6194930;23;20013;-78
2023/02/19 04:59:02;;;;;;;23.23;15.30;;;;;;;3.00;100.00;93062.88;6193529;23;20445;-77
2023/02/19 05:01:28;;;;;;;24.98;14.80;;;;;;;3.03;100.00;93061.66;6219056;23;20013;-77
2023/02/19 05:03:53;;;;;;;24.88;15.23;;;;;;;3.04;100.00;93060.63;6224292;23;20021;-78
2023/02/19 05:06:19;;;;;;;20.20;14.50;;;;;;;3.01;100.00;93055.91;6196599;23;20016;-78
2023/02/19 05:08:44;;;;;;;24.60;15.02;;;;;;;3.06;100.00;93058.59;6223916;23;20016;-78
2023/02/19 05:11:11;;;;;;;27.02;15.23;;;;;;;3.06;100.00;93049.06;6223532;23;20046;-78
2023/02/19 05:13:38;;;;;;;24.10;15.20;;;;;;;3.09;100.00;93053.78;6219557;23;20016;-78
2023/02/19 05:16:06;;;;;;;22.88;15.02;;;;;;;3.07;100.00;93044.66;6220235;23;20091;-78
2023/02/19 05:18:33;;;;;;;24.88;15.52;;;;;;;3.09;100.00;93056.34;6195131;23;20008;-78
2023/02/19 05:21:00;;;;;;;24.20;14.82;;;;;;;3.09;100.00;93058.16;6223078;23;20023;-77
2023/02/19 05:23:26;;;;;;;23.88;14.15;;;;;;;3.08;100.00;93057.34;6221595;23;20001;-78
2023/02/19 05:25:53;;;;;;;23.65;14.73;;;;;;;3.08;100.00;93052.19;6222655;23;20024;-78
2023/02/19 05:28:19;;;;;;;24.13;15.32;;;;;;;3.09;100.00;93051.19;6194842;23;20060;-78
2023/02/19 05:30:50;;;;;;;22.75;15.30;;;;;;;3.09;100.00;93043.41;6197831;23;20221;-78
2023/02/19 05:33:17;;;;;;;25.52;15.73;;;;;;;3.09;100.00;93042.63;6223813;23;20441;-78
2023/02/19 05:35:46;;;;;;;25.00;15.50;;;;;;;3.05;100.00;93041.50;6221653;23;20000;-78
2023/02/19 05:38:12;;;;;;;22.25;14.38;;;;;;;3.05;100.00;93042.28;6222210;23;20005;-78
2023/02/19 05:40:38;;;;;;;26.88;14.63;;;;;;;3.06;100.00;93048.25;6221952;23;20086;-78
2023/02/19 05:43:04;;;;;;;22.33;14.32;;;;;;;3.04;100.00;93051.09;6221313;23;20020;-78
2023/02/19 05:45:30;;;;;;;24.20;15.30;;;;;;;3.06;100.00;93045.66;6194890;23;20328;-78
2023/02/19 05:47:56;;;;;;;23.00;15.23;;;;;;;3.06;100.00;93056.81;6195013;23;20484;-78
2023/02/19 05:50:22;;;;;;;23.05;15.02;;;;;;;3.06;100.00;93054.22;6220413;23;20020;-78
2023/02/19 05:52:48;;;;;;;25.85;15.68;;;;;;;3.07;100.00;93060.19;6194291;23;20337;-78
2023/02/19 05:55:13;;;;;;;21.92;14.45;;;;;;;3.06;100.00;93058.59;6222549;23;20010;-78
2023/02/19 05:57:44;;;;;;;22.23;15.13;;;;;;;3.09;100.00;93056.34;6195354;23;20016;-78
2023/02/19 06:00:11;;;;;;;24.80;15.13;;;;;;;3.11;100.00;93054.34;6193970;23;20473;-78
2023/02/19 06:02:43;;;;;;;22.77;14.85;;;;;;;3.10;100.00;93050.16;6220691;23;20000;-78
2023/02/19 06:05:09;;;;;;;22.58;14.93;;;;;;;3.10;100.00;93052.75;6221527;23;20020;-78
2023/02/19 06:07:35;;;;;;;25.98;16.00;;;;;;;3.07;100.00;93055.00;6195102;23;20019;-77
2023/02/19 06:10:01;;;;;;;23.95;15.45;;;;;;;3.09;100.00;93056.34;6219935;23;20471;-77
2023/02/19 06:12:27;;;;;;;24.65;14.60;;;;;;;3.12;100.00;93055.91;6193996;23;20009;-78
2023/02/19 06:14:52;;;;;;;23.30;15.07;;;;;;;3.13;100.00;93060.06;6220303;23;20008;-78
2023/02/19 06:17:18;;;;;;;22.10;14.95;;;;;;;3.14;100.00;93055.69;6193389;23;20018;-78
2023/02/19 06:19:44;;;;;;;19.95;13.95;;;;;;;3.14;100.00;93055.69;6219975;23;20000;-77
2023/02/19 06:22:09;;;;;;;21.05;13.65;;;;;;;3.15;100.00;93057.25;6221279;23;20021;-77
2023/02/19 06:24:36;;;;;;;21.25;13.80;;;;;;;3.16;100.00;93056.25;6220785;23;20013;-77
2023/02/19 06:27:06;;;;;;;19.88;13.20;;;;;;;3.19;100.00;93062.75;6194344;23;20021;-78
2023/02/19 06:29:32;;;;;;;22.05;14.18;;;;;;;3.19;100.00;93063.53;6220224;23;20012;-78
2023/02/19 06:31:59;;;;;;;21.50;14.10;;;;;;;3.22;100.00;93057.13;6220652;23;20007;-78
2023/02/19 06:34:24;;;;;;;20.92;13.80;;;;;;;3.25;100.00;93054.09;6194836;23;20036;-78
2023/02/19 06:36:50;;;;;;;21.48;14.40;;;;;;;3.28;100.00;93066.56;6220813;23;20016;-78
2023/02/19 06:39:16;;;;;;;24.17;14.95;;;;;;;3.31;100.00;93055.75;6220739;23;20440;-77
2023/02/19 06:41:41;;;;;;;20.55;13.88;;;;;;;3.34;100.00;93055.31;6214312;23;20048;-77
2023/02/19 06:44:07;;;;;;;23.20;14.30;;;;;;;3.37;100.00;93060.03;6214322;23;20017;-77
2023/02/19 06:46:33;;;;;;;19.50;13.07;;;;;;;3.38;100.00;93053.88;6164997;23;20024;-78
2023/02/19 06:48:59;;;;;;;21.23;14.82;;;;;;;3.42;100.00;93054.94;6223258;23;20011;-78
2023/02/19 06:51:27;;;;;;;22.55;14.70;;;;;;;3.46;100.00;93043.13;6191609;23;20096;-78
2023/02/19 06:53:53;;;;;;;23.48;14.60;;;;;;;3.50;100.00;93053.84;6191761;23;20452;-77
2023/02/19 06:56:29;;;;;;;23.15;14.75;;;;;;;3.53;100.00;93054.19;6220238;23;20000;-78
2023/02/19 06:59:01;;;;;;;22.60;15.02;;;;;;;3.57;100.00;93051.13;6194025;23;20001;-78
2023/02/19 07:01:28;;;;;;;24.02;14.85;;;;;;;3.60;100.00;93037.72;6220870;23;20033;-78
2023/02/19 07:03:54;;;;;;;18.90;13.77;;;;;;;3.62;100.00;93046.03;6220914;23;20009;-78
2023/02/19 07:06:24;;;;;;;22.05;14.25;;;;;;;3.64;100.00;93049.19;6194157;23;20020;-79
2023/02/19 07:08:50;;;;;;;21.05;13.98;;;;;;;3.68;100.00;93052.91;6194134;23;20012;-77
2023/02/19 07:11:17;;;;;;;19.85;13.80;;;;;;;3.70;100.00;93048.28;6192116;23;20456;-78
2023/02/19 07:13:43;;;;;;;22.63;14.95;;;;;;;3.74;100.00;93049.41;6216698;23;20039;-78
2023/02/19 07:16:10;;;;;;;24.13;15.27;;;;;;;3.78;100.00;93049.69;6171122;23;20012;-79
2023/02/19 07:18:36;;;;;;;21.67;14.25;;;;;;;3.79;100.00;93052.06;6221117;23;19993;-79
2023/02/19 07:21:08;;;;;;;21.10;13.70;;;;;;;3.81;100.00;93052.63;6150058;23;20013;-81
2023/02/19 07:23:37;;;;;;;19.10;13.80;;;;;;;3.91;100.00;93070.16;6220716;23;20449;-77
2023/02/19 07:26:03;;;;;;;21.08;14.70;;;;;;;3.93;100.00;93063.72;6217793;23;20071;-78
2023/02/19 07:28:28;;;;;;;21.50;14.43;;;;;;;3.97;100.00;93070.03;6215710;23;20012;-77
2023/02/19 07:31:04;;;;;;;21.98;15.25;;;;;;;4.01;100.00;93069.56;6216578;23;20016;-77
2023/02/19 07:33:30;;;;;;;19.67;14.65;;;;;;;4.07;100.00;93068.63;6216743;23;20468;-77
2023/02/19 07:35:57;;;;;;;20.65;14.23;;;;;;;4.11;100.00;93064.56;6189564;23;20008;-78
2023/02/19 07:38:24;;;;;;;21.65;14.52;;;;;;;4.16;100.00;93062.84;6189603;23;20349;-77
2023/02/19 07:40:54;;;;;;;22.65;14.82;;;;;;;4.19;100.00;93056.44;6216927;23;20013;-76
2023/02/19 07:43:20;;;;;;;24.00;15.55;;;;;;;4.25;100.00;93073.63;6216482;23;20024;-76
2023/02/19 07:45:45;;;;;;;23.00;14.45;;;;;;;4.30;100.00;93081.50;6189045;23;20340;-77
2023/02/19 07:48:11;;;;;;;22.38;14.18;;;;;;;4.36;100.00;93077.19;6188615;23;20016;-77
2023/02/19 07:50:37;;;;;;;20.98;14.55;;;;;;;4.52;100.00;93075.63;6187853;23;20016;-75
2023/02/19 07:53:02;;;;;;;22.33;13.68;;;;;;;4.63;100.00;93084.38;6213792;23;20008;-76
2023/02/19 07:55:28;;;;;;;21.38;13.65;;;;;;;4.68;100.00;93084.44;6188192;23;20326;-75
2023/02/19 07:57:53;;;;;;;20.45;13.77;;;;;;;4.73;100.00;93082.75;6214602;23;20016;-76
2023/02/19 08:00:19;;;;;;;20.60;13.88;;;;;;;4.78;100.00;93079.44;6215217;23;20091;-76
2023/02/19 08:03:00;;;;;;;21.55;14.38;;;;;;;4.85;100.00;93080.06;6215743;23;20016;-76
2023/02/19 08:05:31;;;;;;;19.77;12.98;;;;;;;4.93;100.00;93079.69;6190015;23;20023;-76
2023/02/19 08:07:58;;;;;;;21.10;13.95;;;;;;;5.05;100.00;93079.59;6215370;23;20084;-78
2023/02/19 08:13:24;;;;;;;21.40;14.55;;;;;;;5.25;100.00;93086.91;6214362;23;20024;-76
2023/02/19 08:16:16;;;;;;;21.02;14.32;;;;;;;5.33;100.00;93076.09;6214081;23;20022;-77
2023/02/19 08:18:42;;;;;;;18.33;14.13;;;;;;;5.43;100.00;93071.03;6214985;23;20437;-77
2023/02/19 08:21:08;;;;;;;20.70;13.93;;;;;;;5.51;100.00;93062.03;6214395;23;20361;-77
2023/02/19 08:23:34;;;;;;;23.90;14.13;;;;;;;5.58;100.00;93065.28;6214946;23;20463;-77
2023/02/19 08:26:01;;;;;;;20.05;14.55;;;;;;;5.70;100.00;93064.38;6214469;23;20012;-77
2023/02/19 08:28:27;;;;;;;18.67;13.60;;;;;;;5.78;100.00;93064.72;6187728;23;20020;-77
2023/02/19 08:30:58;;;;;;;23.88;13.73;;;;;;;5.88;100.00;93058.06;6187266;23;20016;-77
2023/02/19 08:33:25;;;;;;;24.15;14.63;;;;;;;5.98;100.00;93060.81;6188597;23;20091;-77
2023/02/19 08:35:50;;;;;;;19.50;13.50;;;;;;;6.08;100.00;93060.94;6215266;23;20001;-76
2023/02/19 08:38:16;;;;;;;20.60;14.50;;;;;;;6.13;100.00;93042.00;6214506;23;20017;-76
2023/02/19 08:40:42;;;;;;;20.33;13.95;;;;;;;6.34;100.00;93050.78;6214873;23;20016;-77
2023/02/19 08:43:14;;;;;;;19.77;14.45;;;;;;;6.47;100.00;93043.38;6215378;23;20369;-76
2023/02/19 08:45:43;;;;;;;20.92;13.98;;;;;;;6.62;100.00;93047.94;6217753;23;20051;-78
2023/02/19 08:48:10;;;;;;;21.55;14.25;;;;;;;6.77;100.00;93051.69;6166914;23;20352;-76
2023/02/19 08:50:36;;;;;;;17.75;13.40;;;;;;;6.95;100.00;93053.13;6215414;23;20013;-76
2023/02/19 08:53:03;;;;;;;20.55;14.48;;;;;;;7.08;100.00;93061.28;6191814;23;20143;-77
2023/02/19 08:55:29;;;;;;;18.73;12.68;;;;;;;7.23;100.00;93065.81;6189748;23;20441;-77
2023/02/19 08:57:55;;;;;;;20.73;13.50;;;;;;;7.38;100.00;93059.13;6217058;23;20071;-77
2023/02/19 09:00:20;;;;;;;18.85;13.00;;;;;;;7.59;100.00;93063.41;6218019;23;20004;-77
2023/02/19 09:02:47;;;;;;;19.80;12.80;;;;;;;7.86;100.00;93052.06;6190716;23;20463;-77
2023/02/19 09:05:13;;;;;;;18.83;11.32;;;;;;;7.84;100.00;93059.34;6217791;23;20012;-78
2023/02/19 09:07:40;;;;;;;17.98;12.45;;;;;;;7.97;100.00;93063.31;6191183;23;20058;-77
2023/02/19 09:10:06;;;;;;;18.20;11.80;;;;;;;7.99;100.00;93062.00;6216924;23;20017;-76
2023/02/19 09:12:32;;;;;;;15.10;11.10;;;;;;;8.01;100.00;93059.94;6190794;23;20352;-77
2023/02/19 09:14:59;;;;;;;17.35;12.00;;;;;;;7.78;100.00;93053.31;6215817;23;20025;-77
2023/02/19 09:17:25;;;;;;;19.00;12.85;;;;;;;7.87;100.00;93051.03;6188231;23;20361;-77
2023/02/19 09:19:51;;;;;;;22.33;13.52;;;;;;;7.90;100.00;93056.53;6188297;23;20058;-76
2023/02/19 09:22:17;;;;;;;23.88;13.27;;;;;;;8.04;100.00;93056.81;6187917;23;20016;-76
2023/02/19 09:24:44;;;;;;;17.38;13.13;;;;;;;8.09;100.00;93056.84;6189283;23;20022;-76
2023/02/19 09:27:18;;;;;;;17.73;12.73;;;;;;;8.22;100.00;93055.56;6188936;23;20016;-77
2023/02/19 09:29:44;;;;;;;17.00;11.00;;;;;;;8.50;100.00;93056.94;6214036;23;20040;-76
2023/02/19 09:32:10;;;;;;;19.20;13.25;;;;;;;8.57;100.00;93055.94;6213870;23;20051;-76
2023/02/19 09:34:37;;;;;;;19.95;13.88;;;;;;;8.73;100.00;93060.88;6186592;23;20020;-77
2023/02/19 09:37:04;;;;;;;18.90;13.13;;;;;;;8.85;100.00;93063.25;6187632;23;20020;-76
2023/02/19 09:39:30;;;;;;;18.00;13.18;;;;;;;8.98;100.00;93066.38;6213689;23;19996;-76
2023/02/19 09:42:00;;;;;;;18.35;12.10;;;;;;;9.23;100.00;93057.75;6213608;23;20043;-77
2023/02/19 09:44:33;;;;;;;16.40;12.18;;;;;;;9.45;99.27;93049.63;6213803;23;20013;-76
2023/02/19 09:47:00;;;;;;;17.92;13.00;;;;;;;9.45;100.00;93050.41;6189695;23;20023;-77
2023/02/19 09:49:40;;;;;;;17.17;11.98;;;;;;;9.73;98.24;93053.47;6216894;23;20001;-76
2023/02/19 09:52:06;;;;;;;16.42;11.50;;;;;;;9.82;97.78;93053.69;6216723;23;20008;-77
2023/02/19 09:54:33;;;;;;;15.27;12.48;;;;;;;9.76;97.50;93050.31;6217391;23;20452;-77
2023/02/19 09:57:02;;;;;;;17.45;12.50;;;;;;;10.00;97.39;93046.03;6189920;23;20013;-76
2023/02/19 09:59:34;;;;;;;17.10;12.25;;;;;;;10.25;95.62;93054.06;6217233;23;20015;-77
2023/02/19 10:02:12;;;;;;;16.02;10.50;;;;;;;10.37;93.22;93046.69;6189958;23;20399;-77
2023/02/19 10:04:41;;;;;;;15.75;11.60;;;;;;;10.15;93.34;93049.63;6213663;23;20111;-76
2023/02/19 10:07:40;;;;;;;17.73;12.10;;;;;;;9.82;93.44;93041.41;6213577;23;20000;-76
2023/02/19 10:10:12;;;;;;;17.35;11.52;;;;;;;9.96;96.14;93047.63;6213219;23;20012;-76
2023/02/19 10:12:40;;;;;;;19.30;10.82;;;;;;;10.21;93.10;93046.72;6186996;23;20013;-76
2023/02/19 10:15:14;;;;;;;18.15;12.63;;;;;;;10.28;92.05;93046.44;6213375;23;20017;-76
2023/02/19 10:17:40;;;;;;;15.85;11.95;;;;;;;10.32;90.38;93051.94;6186825;23;20432;-76
2023/02/19 10:20:11;;;;;;;19.60;13.00;;;;;;;10.38;89.34;93045.63;6186686;23;20016;-76
2023/02/19 10:22:37;;;;;;;17.42;12.23;;;;;;;10.23;90.83;93048.31;6213346;23;20087;-75
2023/02/19 10:25:03;;;;;;;18.15;13.10;;;;;;;10.28;89.71;93053.50;6186653;23;20465;-76
2023/02/19 10:27:31;;;;;;;17.15;12.35;;;;;;;10.16;92.49;93045.97;6213078;23;20036;-76
2023/02/19 10:29:59;;;;;;;17.55;12.68;;;;;;;10.02;93.88;93045.78;6186600;23;20013;-76
2023/02/19 10:32:26;;;;;;;16.23;12.63;;;;;;;9.93;92.04;93047.38;6212546;23;20021;-76
2023/02/19 10:35:24;;;;;;;15.98;11.57;;;;;;;10.29;93.95;93050.66;6161654;23;20428;-76
2023/02/19 10:37:51;;;;;;;14.70;8.52;;;;;;;10.59;91.03;93049.69;6162810;23;20017;-76
2023/02/19 10:40:23;;;;;;;17.42;11.82;;;;;;;10.51;91.04;93049.47;6161639;23;20340;-76
2023/02/19 10:42:50;;;;;;;;;;;;;;;10.61;92.35;93044.97;6213627;23;20460;-76
2023/02/19 10:45:28;;;;;;;13.68;9.85;;;;;;;10.68;90.23;93039.41;6186514;23;19962;-77
2023/02/19 10:47:54;;;;;;;15.07;10.70;;;;;;;10.74;90.15;93045.38;6213056;23;20016;-76
2023/02/19 10:50:43;;;;;;;14.13;10.88;;;;;;;10.72;88.86;93045.69;6212978;23;20518;-76
2023/02/19 10:53:22;;;;;;;17.65;12.05;;;;;;;10.44;89.31;93049.78;6213831;23;20020;-76
2023/02/19 10:55:48;;;;;;;17.83;12.73;;;;;;;10.08;90.87;93042.06;6212898;23;20017;-76
2023/02/19 10:58:28;;;;;;;16.48;12.43;;;;;;;10.28;90.52;93040.41;6212399;23;20016;-76
2023/02/19 11:01:10;;;;;;;18.00;11.90;;;;;;;10.49;89.57;93043.72;6213849;23;20081;-76
2023/02/19 11:03:36;;;;;;;17.15;12.45;;;;;;;10.53;89.70;93048.13;6215810;23;20013;-77
2023/02/19 11:06:05;;;;;;;16.30;11.75;;;;;;;10.68;89.28;93039.41;6188972;23;20389;-75
2023/02/19 11:08:54;;;;;;;17.50;10.50;;;;;;;10.89;88.25;93034.81;6215732;23;20552;-75
2023/02/19 11:11:49;;;;;;;19.00;12.25;;;;;;;10.70;89.64;93039.16;6184123;23;20095;-77
2023/02/19 11:14:18;;;;;;;18.83;12.63;;;;;;;10.78;87.99;93035.94;6216253;23;20461;-77
2023/02/19 11:16:55;;;;;;;14.43;9.80;;;;;;;10.81;89.58;93038.03;6217072;23;20012;-77
2023/02/19 11:19:30;;;;;;;14.68;11.05;;;;;;;11.03;89.75;93035.75;6216921;23;20008;-77
2023/02/19 11:21:58;;;;;;;15.20;10.15;;;;;;;11.18;88.46;93026.19;6216121;23;20107;-77
2023/02/19 11:24:36;;;;;;;13.95;9.95;;;;;;;11.56;88.68;93028.97;6216814;23;19997;-76
2023/02/19 11:27:14;;;;;;;10.30;8.15;;;;;;;11.95;85.73;93020.94;6215695;23;20017;-76
2023/02/19 11:29:40;;;;;;;11.07;7.80;;;;;;;12.13;84.53;93016.00;6216244;23;20032;-76
2023/02/19 11:32:28;;;;;;;11.35;8.40;;;;;;;12.14;82.38;93013.13;6189552;23;20447;-76
2023/02/19 11:35:32;;;;;;;11.85;7.40;;;;;;;12.35;82.08;93018.88;6216987;23;20012;-77
2023/02/19 11:38:00;;;;;;;12.23;8.35;;;;;;;12.39;81.25;93008.59;6094875;23;20041;-76
2023/02/19 11:40:34;;;;;;;10.20;7.03;;;;;;;12.17;81.57;93012.53;6071343;23;20386;-77
2023/02/19 11:43:15;;;;;;;14.65;10.07;;;;;;;11.63;83.22;93001.34;6134036;23;20479;-76
2023/02/19 11:46:08;;;;;;;12.07;8.40;;;;;;;11.53;84.88;92998.03;6188027;23;20017;-76
2023/02/19 11:48:53;;;;;;;10.85;7.18;;;;;;;11.60;84.36;93001.13;6188183;23;20013;-76
2023/02/19 11:51:37;;;;;;;12.88;9.02;;;;;;;11.71;85.19;92989.47;6215261;23;20063;-76
2023/02/19 11:54:22;;;;;;;7.35;4.97;;;;;;;11.45;85.61;92987.13;6215462;23;20012;-76
2023/02/19 11:57:08;;;;;;;12.23;8.88;;;;;;;11.49;84.64;92983.97;6217063;23;20506;-76